createdAt,value
2022-12-18T00:02:20.624Z,-2.29
2022-12-18T00:04:47.558Z,-2.27
2022-12-18T00:07:16.350Z,-2.24
2022-12-18T00:09:46.537Z,-2.28
2022-12-18T00:14:42.734Z,-2.33
2022-12-18T00:17:09.295Z,-2.25
2022-12-18T00:19:38.307Z,-2.34
2022-12-18T00:22:07.514Z,-2.26
2022-12-18T00:24:34.083Z,-2.26
2022-12-18T00:27:03.709Z,-2.31
2022-12-18T00:29:30.431Z,-2.33
2022-12-18T00:31:57.016Z,-2.29
2022-12-18T00:34:23.758Z,-2.28
2022-12-18T00:36:50.340Z,-2.27
2022-12-18T00:39:16.875Z,-2.18
2022-12-18T00:42:01.794Z,-2.23
2022-12-18T00:44:31.314Z,-2.21
2022-12-18T00:46:57.880Z,-2.23
2022-12-18T00:49:26.996Z,-2.16
2022-12-18T00:51:53.603Z,-2.13
2022-12-18T00:54:20.148Z,-2.14
2022-12-18T00:56:49.870Z,-2.14
2022-12-18T00:59:21.691Z,-2.16
2022-12-18T01:01:48.872Z,-2.26
2022-12-18T01:04:16.150Z,-2.32
2022-12-18T01:06:42.679Z,-2.26
2022-12-18T01:09:11.733Z,-2.28
2022-12-18T01:11:43.200Z,-2.25
2022-12-18T01:14:09.929Z,-2.16
2022-12-18T01:16:36.591Z,-2.25
2022-12-18T01:19:03.313Z,-2.33
2022-12-18T01:21:37.187Z,-2.35
2022-12-18T01:24:04.016Z,-2.39
2022-12-18T01:26:30.647Z,-2.34
2022-12-18T01:28:59.991Z,-2.32
2022-12-18T01:31:31.652Z,-2.33
2022-12-18T01:34:01.148Z,-2.31
2022-12-18T01:36:31.109Z,-2.22
2022-12-18T01:39:02.423Z,-2.33
2022-12-18T01:41:49.223Z,-2.31
2022-12-18T01:44:53.563Z,-2.23
2022-12-18T01:47:31.367Z,-2.35
2022-12-18T01:50:00.469Z,-2.25
2022-12-18T01:52:34.544Z,-2.19
2022-12-18T01:55:04.938Z,-2.22
2022-12-18T01:57:31.804Z,-2.20
2022-12-18T02:00:06.059Z,-2.20
2022-12-18T02:02:35.027Z,-2.17
2022-12-18T02:05:03.136Z,-2.18
2022-12-18T02:07:38.858Z,-2.25
2022-12-18T02:10:17.962Z,-2.21
2022-12-18T02:12:57.385Z,-2.18
2022-12-18T02:15:50.328Z,-2.09
2022-12-18T02:18:28.168Z,-2.23
2022-12-18T02:21:17.024Z,-2.23
2022-12-18T02:24:02.240Z,-2.19
2022-12-18T02:26:35.307Z,-2.09
2022-12-18T02:29:07.066Z,-2.17
2022-12-18T02:31:43.359Z,-2.25
2022-12-18T02:34:11.508Z,-2.22
2022-12-18T02:36:45.242Z,-2.31
2022-12-18T02:39:16.413Z,-2.31
2022-12-18T02:41:43.189Z,-2.29
2022-12-18T02:44:12.935Z,-2.31
2022-12-18T02:46:46.303Z,-2.25
2022-12-18T02:49:18.839Z,-2.21
2022-12-18T02:51:54.336Z,-2.27
2022-12-18T02:54:40.031Z,-2.32
2022-12-18T02:57:36.828Z,-2.31
2022-12-18T03:00:08.876Z,-2.30
2022-12-18T03:02:47.448Z,-2.29
2022-12-18T03:05:20.180Z,-2.31
2022-12-18T03:07:56.325Z,-2.31
2022-12-18T03:10:29.011Z,-2.35
2022-12-18T03:13:05.364Z,-2.37
2022-12-18T03:15:40.926Z,-2.36
2022-12-18T03:18:23.121Z,-2.36
2022-12-18T03:20:54.688Z,-2.39
2022-12-18T03:23:32.619Z,-2.36
2022-12-18T03:26:07.584Z,-2.35
2022-12-18T03:28:39.942Z,-2.36
2022-12-18T03:31:13.070Z,-2.35
2022-12-18T03:33:49.807Z,-2.38
2022-12-18T03:36:16.457Z,-2.37
2022-12-18T03:38:43.130Z,-2.33
2022-12-18T03:41:16.050Z,-2.34
2022-12-18T03:44:13.633Z,-2.32
2022-12-18T03:47:04.226Z,-2.28
2022-12-18T03:49:41.757Z,-2.38
2022-12-18T03:52:21.636Z,-2.34
2022-12-18T03:54:51.284Z,-2.30
2022-12-18T03:57:23.956Z,-2.32
2022-12-18T03:59:57.287Z,-2.33
2022-12-18T04:02:27.315Z,-2.29
2022-12-18T04:05:00.910Z,-2.28
2022-12-18T04:07:28.657Z,-2.29
2022-12-18T04:10:02.440Z,-2.27
2022-12-18T04:12:35.449Z,-2.28
2022-12-18T04:15:03.304Z,-2.30
2022-12-18T04:17:32.546Z,-2.44
2022-12-18T04:20:01.660Z,-2.35
2022-12-18T04:22:28.240Z,-2.37
2022-12-18T04:24:54.800Z,-2.41
2022-12-18T04:27:21.877Z,-2.44
2022-12-18T04:29:50.670Z,-2.35
2022-12-18T04:32:20.195Z,-2.40
2022-12-18T04:34:46.746Z,-2.47
2022-12-18T04:37:13.359Z,-2.39
2022-12-18T04:39:40.123Z,-2.35
2022-12-18T04:42:07.101Z,-2.31
2022-12-18T04:44:35.906Z,-2.38
2022-12-18T04:47:02.443Z,-2.40
2022-12-18T04:49:29.008Z,-2.40
2022-12-18T04:51:55.588Z,-2.40
2022-12-18T04:54:24.742Z,-2.32
2022-12-18T04:56:53.635Z,-2.28
2022-12-18T04:59:21.003Z,-2.27
2022-12-18T05:01:47.646Z,-2.28
2022-12-18T05:04:17.676Z,-2.25
2022-12-18T05:06:44.632Z,-2.18
2022-12-18T05:09:13.370Z,-2.18
2022-12-18T05:11:42.290Z,-2.07
2022-12-18T05:14:08.855Z,-2.00
2022-12-18T05:16:35.429Z,-2.01
2022-12-18T05:19:01.976Z,-1.94
2022-12-18T05:21:30.976Z,-1.90
2022-12-18T05:23:57.490Z,-1.89
2022-12-18T05:26:24.181Z,-1.88
2022-12-18T05:28:50.718Z,-1.91
2022-12-18T05:31:19.644Z,-1.87
2022-12-18T05:33:46.260Z,-1.83
2022-12-18T05:36:13.102Z,-1.85
2022-12-18T05:38:42.279Z,-1.86
2022-12-18T05:41:12.368Z,-1.86
2022-12-18T05:43:43.342Z,-1.85
2022-12-18T05:46:15.406Z,-1.83
2022-12-18T05:48:45.889Z,-1.93
2022-12-18T05:51:19.215Z,-2.05
2022-12-18T05:53:49.620Z,-1.93
2022-12-18T05:56:21.352Z,-1.86
2022-12-18T05:58:52.187Z,-1.86
2022-12-18T06:01:22.590Z,-1.96
2022-12-18T06:03:49.608Z,-1.93
2022-12-18T06:06:27.978Z,-1.86
2022-12-18T06:08:55.876Z,-1.90
2022-12-18T06:11:26.556Z,-2.04
2022-12-18T06:13:58.261Z,-1.93
2022-12-18T06:16:28.182Z,-1.94
2022-12-18T06:19:00.374Z,-2.00
2022-12-18T06:21:30.857Z,-1.98
2022-12-18T06:23:58.738Z,-1.93
2022-12-18T06:26:30.248Z,-1.86
2022-12-18T06:28:57.131Z,-1.89
2022-12-18T06:31:24.158Z,-1.89
2022-12-18T06:33:54.145Z,-1.96
2022-12-18T06:36:23.180Z,-1.96
2022-12-18T06:38:52.266Z,-1.94
2022-12-18T06:41:23.461Z,-1.96
2022-12-18T06:43:56.787Z,-2.00
2022-12-18T06:46:28.548Z,-1.99
2022-12-18T06:48:55.110Z,-1.96
2022-12-18T06:51:25.262Z,-2.02
2022-12-18T06:53:51.833Z,-2.02
2022-12-18T06:56:18.700Z,-2.05
2022-12-18T06:58:47.592Z,-2.02
2022-12-18T07:01:14.887Z,-2.01
2022-12-18T07:03:45.591Z,-2.05
2022-12-18T07:06:23.236Z,-2.05
2022-12-18T07:08:53.992Z,-2.07
2022-12-18T07:11:22.471Z,-2.12
2022-12-18T07:13:49.161Z,-2.06
2022-12-18T07:16:24.642Z,-2.01
2022-12-18T07:18:52.266Z,-2.00
2022-12-18T07:21:22.994Z,-1.96
2022-12-18T07:23:52.417Z,-1.99
2022-12-18T07:26:22.694Z,-2.03
2022-12-18T07:28:51.459Z,-2.03
2022-12-18T07:31:21.832Z,-2.09
2022-12-18T07:33:49.660Z,-2.09
2022-12-18T07:36:19.505Z,-2.12
2022-12-18T07:38:51.053Z,-2.09
2022-12-18T07:41:21.857Z,-2.04
2022-12-18T07:43:48.878Z,-1.98
2022-12-18T07:46:16.795Z,-2.01
2022-12-18T07:48:46.255Z,-1.98
2022-12-18T07:51:19.782Z,-2.02
2022-12-18T07:53:52.263Z,-1.95
2022-12-18T07:56:27.819Z,-1.95
2022-12-18T07:58:55.206Z,-1.94
2022-12-18T08:01:24.904Z,-1.89
2022-12-18T08:03:52.491Z,-1.87
2022-12-18T08:06:23.997Z,-1.88
2022-12-18T08:08:57.337Z,-1.93
2022-12-18T08:11:25.526Z,-1.85
2022-12-18T08:13:55.034Z,-1.91
2022-12-18T08:16:23.159Z,-1.81
2022-12-18T08:18:49.884Z,-1.77
2022-12-18T08:21:24.097Z,-1.79
2022-12-18T08:23:53.895Z,-1.75
2022-12-18T08:26:21.986Z,-1.79
2022-12-18T08:28:49.246Z,-1.82
2022-12-18T08:31:19.381Z,-1.82
2022-12-18T08:33:53.275Z,-1.71
2022-12-18T08:36:21.523Z,-1.67
2022-12-18T08:38:48.406Z,-1.68
2022-12-18T08:41:18.232Z,-1.61
2022-12-18T08:44:05.992Z,-1.61
2022-12-18T08:46:37.097Z,-1.59
2022-12-18T08:49:04.291Z,-1.51
2022-12-18T08:51:35.932Z,-1.55
2022-12-18T08:54:03.459Z,-1.46
2022-12-18T08:56:38.727Z,-1.49
2022-12-18T08:59:05.499Z,-1.44
2022-12-18T09:01:39.412Z,-1.46
2022-12-18T09:04:06.058Z,-1.42
2022-12-18T09:06:34.158Z,-1.46
2022-12-18T09:09:00.672Z,-1.51
2022-12-18T09:11:33.296Z,-1.47
2022-12-18T09:14:01.969Z,-1.49
2022-12-18T09:16:32.383Z,-1.36
2022-12-18T09:19:00.761Z,-1.37
2022-12-18T09:21:30.176Z,-1.30
2022-12-18T09:23:59.659Z,-1.35
2022-12-18T09:26:27.270Z,-1.36
2022-12-18T09:28:54.493Z,-1.41
2022-12-18T09:31:22.547Z,-1.35
2022-12-18T09:33:51.566Z,-1.41
2022-12-18T09:36:21.207Z,-1.45
2022-12-18T09:38:50.902Z,-1.35
2022-12-18T09:41:45.468Z,-1.32
2022-12-18T09:44:15.407Z,-1.34
2022-12-18T09:46:50.589Z,-1.27
2022-12-18T09:49:24.522Z,-1.38
2022-12-18T09:52:01.038Z,-1.24
2022-12-18T09:54:41.862Z,-1.30
2022-12-18T09:57:15.381Z,-1.27
2022-12-18T09:59:50.956Z,-1.37
2022-12-18T10:02:26.350Z,-1.29
2022-12-18T10:05:07.578Z,-1.06
2022-12-18T10:07:42.455Z,-1.15
2022-12-18T10:10:33.186Z,-1.14
2022-12-18T10:13:32.453Z,-1.01
2022-12-18T10:16:08.138Z,-1.00
2022-12-18T10:18:56.781Z,-0.99
2022-12-18T10:21:37.726Z,-1.04
2022-12-18T10:24:17.446Z,-1.15
2022-12-18T10:26:45.191Z,-0.94
2022-12-18T10:29:19.378Z,-0.98
2022-12-18T10:31:46.048Z,-0.91
2022-12-18T10:34:15.487Z,-0.84
2022-12-18T10:36:43.273Z,-0.89
2022-12-18T10:39:17.194Z,-0.83
2022-12-18T10:41:43.958Z,-0.60
2022-12-18T10:44:21.318Z,-0.87
2022-12-18T10:46:57.766Z,-0.74
2022-12-18T10:49:27.739Z,-0.58
2022-12-18T10:52:20.987Z,-0.36
2022-12-18T10:54:56.347Z,-0.57
2022-12-18T10:57:39.099Z,-0.46
2022-12-18T11:00:29.871Z,-0.45
2022-12-18T11:02:57.592Z,-0.55
2022-12-18T11:05:28.243Z,-0.49
2022-12-18T11:07:57.303Z,-0.62
2022-12-18T11:10:29.844Z,-0.66
2022-12-18T11:13:17.266Z,-0.56
2022-12-18T11:15:46.669Z,-0.50
2022-12-18T11:18:27.351Z,-0.57
2022-12-18T11:21:01.689Z,-0.62
2022-12-18T11:23:28.702Z,-0.61
2022-12-18T11:25:58.955Z,-0.52
2022-12-18T11:28:51.695Z,-0.40
2022-12-18T11:31:36.354Z,-0.26
2022-12-18T11:34:29.457Z,-0.33
2022-12-18T11:36:58.786Z,-0.36
2022-12-18T11:39:42.918Z,-0.40
2022-12-18T11:42:32.335Z,-0.19
2022-12-18T11:45:03.533Z,-0.34
2022-12-18T11:47:41.628Z,-0.48
2022-12-18T11:50:18.476Z,-0.53
2022-12-18T11:52:45.770Z,-0.45
2022-12-18T11:55:17.245Z,-0.50
2022-12-18T11:57:59.684Z,-0.49
2022-12-18T12:00:26.263Z,-0.37
2022-12-18T12:03:17.087Z,-0.33
2022-12-18T12:06:07.805Z,-0.26
2022-12-18T12:08:43.412Z,-0.40
2022-12-18T12:11:36.115Z,-0.47
2022-12-18T12:14:14.737Z,-0.56
2022-12-18T12:16:46.369Z,-0.56
2022-12-18T12:19:58.415Z,-0.56
2022-12-18T12:22:39.423Z,-0.58
2022-12-18T12:25:21.870Z,-0.57
2022-12-18T12:28:14.442Z,-0.59
2022-12-18T12:30:46.960Z,-0.59
2022-12-18T12:33:34.778Z,-0.53
2022-12-18T12:36:30.702Z,-0.42
2022-12-18T12:39:06.418Z,-0.42
2022-12-18T12:41:53.730Z,-0.27
2022-12-18T12:44:51.301Z,-0.55
2022-12-18T12:47:29.437Z,-0.60
2022-12-18T12:49:59.221Z,-0.52
2022-12-18T12:52:38.315Z,-0.51
2022-12-18T12:55:14.830Z,-0.52
2022-12-18T12:57:50.360Z,-0.43
2022-12-18T13:00:25.214Z,-0.52
2022-12-18T13:03:16.611Z,-0.56
2022-12-18T13:06:00.185Z,-0.72
2022-12-18T13:09:07.372Z,-0.66
2022-12-18T13:14:50.164Z,-0.92
2022-12-18T13:17:20.176Z,-1.04
2022-12-18T13:19:52.045Z,-0.99
2022-12-18T13:22:22.626Z,-0.99
2022-12-18T13:24:52.116Z,-0.95
2022-12-18T13:27:43.819Z,-1.04
2022-12-18T13:30:35.224Z,-0.90
2022-12-18T13:33:17.491Z,-0.94
2022-12-18T13:35:47.204Z,-0.96
2022-12-18T13:38:32.044Z,-0.98
2022-12-18T13:41:13.992Z,-0.87
2022-12-18T13:43:45.958Z,-0.79
2022-12-18T13:46:28.322Z,-0.92
2022-12-18T13:48:57.801Z,-0.89
2022-12-18T13:51:26.212Z,-0.78
2022-12-18T13:54:05.206Z,-0.82
2022-12-18T13:59:17.069Z,-0.82
2022-12-18T14:01:54.100Z,-0.84
2022-12-18T14:04:25.368Z,-0.93
2022-12-18T14:07:21.860Z,-0.89
2022-12-18T14:13:01.120Z,-0.91
2022-12-18T14:15:30.091Z,-0.89
2022-12-18T14:18:12.483Z,-0.89
2022-12-18T14:20:46.501Z,-0.98
2022-12-18T14:23:29.593Z,-0.88
2022-12-18T14:26:05.827Z,-0.91
2022-12-18T14:28:33.161Z,-0.88
2022-12-18T14:30:59.913Z,-0.93
2022-12-18T14:33:30.857Z,-0.90
2022-12-18T14:36:04.085Z,-0.94
2022-12-18T14:38:38.049Z,-0.93
2022-12-18T14:41:10.719Z,-0.95
2022-12-18T14:43:39.767Z,-0.90
2022-12-18T14:46:29.426Z,-0.93
2022-12-18T14:48:56.729Z,-0.96
2022-12-18T14:51:28.500Z,-0.92
2022-12-18T14:53:58.728Z,-0.97
2022-12-18T14:56:32.848Z,-1.04
2022-12-18T14:59:01.779Z,-0.98
2022-12-18T15:01:29.838Z,-0.96
2022-12-18T15:03:57.759Z,-1.00
2022-12-18T15:06:33.034Z,-0.97
2022-12-18T15:09:01.799Z,-0.98
2022-12-18T15:11:32.151Z,-1.09
2022-12-18T15:14:21.333Z,-1.03
2022-12-18T15:16:52.595Z,-1.14
2022-12-18T15:19:21.484Z,-1.14
2022-12-18T15:21:48.065Z,-1.15
2022-12-18T15:24:21.239Z,-1.15
2022-12-18T15:26:48.894Z,-1.15
2022-12-18T15:29:24.476Z,-1.13
2022-12-18T15:32:08.476Z,-1.13
2022-12-18T15:34:35.154Z,-1.12
2022-12-18T15:37:01.693Z,-1.15
2022-12-18T15:39:28.299Z,-1.15
2022-12-18T15:42:13.452Z,-1.12
2022-12-18T15:44:40.218Z,-1.15
2022-12-18T15:47:13.026Z,-1.12
2022-12-18T15:49:40.229Z,-1.17
2022-12-18T15:52:09.857Z,-1.13
2022-12-18T15:54:57.462Z,-1.17
2022-12-18T15:57:24.000Z,-1.17
2022-12-18T15:59:59.363Z,-1.19
2022-12-18T16:02:29.697Z,-1.18
2022-12-18T16:04:56.977Z,-1.23
2022-12-18T16:07:25.150Z,-1.29
2022-12-18T16:09:52.830Z,-1.26
2022-12-18T16:12:23.532Z,-1.29
2022-12-18T16:14:52.324Z,-1.32
2022-12-18T16:17:21.201Z,-1.28
2022-12-18T16:19:49.870Z,-1.31
2022-12-18T16:22:21.999Z,-1.35
2022-12-18T16:24:49.084Z,-1.36
2022-12-18T16:27:15.844Z,-1.33
2022-12-18T16:29:44.612Z,-1.38
2022-12-18T16:32:20.720Z,-1.36
2022-12-18T16:34:50.089Z,-1.38
2022-12-18T16:37:17.253Z,-1.39
2022-12-18T16:39:44.438Z,-1.36
2022-12-18T16:42:17.434Z,-1.38
2022-12-18T16:44:45.116Z,-1.35
2022-12-18T16:47:14.975Z,-1.18
2022-12-18T16:49:52.916Z,-1.09
2022-12-18T16:52:22.385Z,-1.11
2022-12-18T16:54:51.247Z,-0.85
2022-12-18T16:57:21.600Z,-1.02
2022-12-18T16:59:52.791Z,-1.20
2022-12-18T17:02:24.091Z,-1.23
2022-12-18T17:04:54.927Z,-0.99
2022-12-18T17:07:23.822Z,-1.03
2022-12-18T17:09:54.232Z,-1.16
2022-12-18T17:12:23.761Z,-1.11
2022-12-18T17:14:50.607Z,-1.24
2022-12-18T17:17:22.362Z,-1.14
2022-12-18T17:19:50.570Z,-1.07
2022-12-18T17:22:19.840Z,-1.23
2022-12-18T17:24:49.116Z,-1.39
2022-12-18T17:27:18.418Z,-1.12
2022-12-18T17:29:48.872Z,-1.25
2022-12-18T17:32:18.344Z,-1.34
2022-12-18T17:34:45.227Z,-1.49
2022-12-18T17:37:11.872Z,-1.52
2022-12-18T17:39:38.593Z,-1.51
2022-12-18T17:42:08.650Z,-1.56
2022-12-18T17:44:40.005Z,-1.56
2022-12-18T17:47:06.646Z,-1.52
2022-12-18T17:49:35.506Z,-1.61
2022-12-18T17:52:04.527Z,-1.63
2022-12-18T17:54:31.151Z,-1.63
2022-12-18T17:57:00.674Z,-1.68
2022-12-18T17:59:32.293Z,-1.77
2022-12-18T18:01:58.997Z,-1.74
2022-12-18T18:04:25.777Z,-1.65
2022-12-18T18:06:54.809Z,-1.68
2022-12-18T18:09:21.393Z,-1.61
2022-12-18T18:12:09.060Z,-1.60
2022-12-18T18:14:35.967Z,-1.52
2022-12-18T18:17:04.641Z,-1.53
2022-12-18T18:19:32.961Z,-1.57
2022-12-18T18:21:59.688Z,-1.59
2022-12-18T18:24:26.376Z,-1.72
2022-12-18T18:26:53.354Z,-1.65
2022-12-18T18:29:26.896Z,-1.62
2022-12-18T18:31:54.744Z,-1.62
2022-12-18T18:34:27.347Z,-1.66
2022-12-18T18:36:59.338Z,-1.60
2022-12-18T18:39:26.456Z,-1.67
2022-12-18T18:41:53.601Z,-1.66
2022-12-18T18:44:21.930Z,-1.64
2022-12-18T18:46:56.645Z,-1.61
2022-12-18T18:49:27.111Z,-1.59
2022-12-18T18:52:00.290Z,-1.63
2022-12-18T18:54:26.843Z,-1.66
2022-12-18T18:59:42.814Z,-1.65
2022-12-18T19:02:17.651Z,-1.71
2022-12-18T19:04:47.116Z,-1.63
2022-12-18T19:07:20.336Z,-1.67
2022-12-18T19:09:56.573Z,-1.64
2022-12-18T19:12:44.021Z,-1.55
2022-12-18T19:15:10.593Z,-1.62
2022-12-18T19:17:40.264Z,-1.64
2022-12-18T19:20:10.196Z,-1.65
2022-12-18T19:22:38.885Z,-1.63
2022-12-18T19:25:05.902Z,-1.62
2022-12-18T19:27:38.890Z,-1.67
2022-12-18T19:30:06.125Z,-1.67
2022-12-18T19:32:33.955Z,-1.64
2022-12-18T19:35:00.673Z,-1.70
2022-12-18T19:37:28.242Z,-1.65
2022-12-18T19:39:59.609Z,-1.61
2022-12-18T19:42:35.289Z,-1.64
2022-12-18T19:45:07.739Z,-1.60
2022-12-18T19:47:34.332Z,-1.49
2022-12-18T19:50:00.966Z,-1.45
2022-12-18T19:52:27.576Z,-1.54
2022-12-18T19:54:54.419Z,-1.56
2022-12-18T19:57:24.056Z,-1.54
2022-12-18T19:59:52.657Z,-1.55
2022-12-18T20:02:21.128Z,-1.54
2022-12-18T20:04:48.995Z,-1.58
2022-12-18T20:07:15.604Z,-1.56
2022-12-18T20:09:47.104Z,-1.51
2022-12-18T20:12:14.741Z,-1.54
2022-12-18T20:14:41.450Z,-1.54
2022-12-18T20:17:12.978Z,-1.45
2022-12-18T20:19:41.958Z,-1.45
2022-12-18T20:22:13.956Z,-1.45
2022-12-18T20:24:40.956Z,-1.45
2022-12-18T20:27:14.028Z,-1.53
2022-12-18T20:29:43.519Z,-1.42
2022-12-18T20:32:10.419Z,-1.33
2022-12-18T20:34:37.227Z,-1.48
2022-12-18T20:37:06.481Z,-1.43
2022-12-18T20:39:39.255Z,-1.48
2022-12-18T20:42:06.283Z,-1.44
2022-12-18T20:44:35.243Z,-1.49
2022-12-18T20:47:07.711Z,-1.61
2022-12-18T20:49:35.743Z,-1.55
2022-12-18T20:52:11.423Z,-1.44
2022-12-18T20:54:37.999Z,-1.55
2022-12-18T20:57:04.982Z,-1.45
2022-12-18T20:59:36.209Z,-1.54
2022-12-18T21:02:05.427Z,-1.53
2022-12-18T21:04:32.088Z,-1.49
2022-12-18T21:07:02.719Z,-1.61
2022-12-18T21:09:37.129Z,-1.52
2022-12-18T21:12:25.413Z,-1.52
2022-12-18T21:14:52.049Z,-1.57
2022-12-18T21:17:18.733Z,-1.46
2022-12-18T21:19:45.632Z,-1.60
2022-12-18T21:22:13.433Z,-1.62
2022-12-18T21:24:40.199Z,-1.64
2022-12-18T21:27:06.799Z,-1.55
2022-12-18T21:29:34.925Z,-1.59
2022-12-18T21:32:02.945Z,-1.64
2022-12-18T21:34:31.230Z,-1.55
2022-12-18T21:37:01.011Z,-1.54
2022-12-18T21:39:31.096Z,-1.65
2022-12-18T21:42:17.111Z,-1.48
2022-12-18T21:44:46.988Z,-1.46
2022-12-18T21:47:22.643Z,-1.56
2022-12-18T21:49:53.369Z,-1.60
2022-12-18T21:52:21.635Z,-1.55
2022-12-18T21:55:06.238Z,-1.54
2022-12-18T21:57:35.657Z,-1.48
2022-12-18T22:00:04.516Z,-1.37
2022-12-18T22:02:33.364Z,-1.33
2022-12-18T22:05:02.307Z,-1.51
2022-12-18T22:07:29.294Z,-1.47
2022-12-18T22:09:58.283Z,-1.53
2022-12-18T22:12:43.414Z,-1.38
2022-12-18T22:15:12.031Z,-1.64
2022-12-18T22:17:45.598Z,-1.52
2022-12-18T22:20:13.366Z,-1.49
2022-12-18T22:22:39.871Z,-1.55
2022-12-18T22:25:10.009Z,-1.62
2022-12-18T22:27:39.915Z,-1.51
2022-12-18T22:30:11.091Z,-1.52
2022-12-18T22:32:42.139Z,-1.57
2022-12-18T22:35:15.746Z,-1.64
2022-12-18T22:37:42.733Z,-1.65
2022-12-18T22:40:22.259Z,-1.58
2022-12-18T22:42:53.467Z,-1.56
2022-12-18T22:45:21.155Z,-1.52
2022-12-18T22:47:47.705Z,-1.61
2022-12-18T22:50:14.766Z,-1.46
2022-12-18T22:52:41.381Z,-1.56
2022-12-18T22:55:12.419Z,-1.63
2022-12-18T22:57:39.402Z,-1.44
2022-12-18T23:00:09.355Z,-1.60
2022-12-18T23:02:38.636Z,-1.57
2022-12-18T23:05:08.541Z,-1.57
2022-12-18T23:07:35.054Z,-1.68
2022-12-18T23:10:01.594Z,-1.59
2022-12-18T23:12:28.301Z,-1.50
2022-12-18T23:14:54.991Z,-1.44
2022-12-18T23:17:23.639Z,-1.52
2022-12-18T23:19:50.188Z,-1.46
2022-12-18T23:22:20.060Z,-1.57
2022-12-18T23:24:51.344Z,-1.53
2022-12-18T23:27:17.903Z,-1.53
2022-12-18T23:29:47.396Z,-1.39
2022-12-18T23:32:15.280Z,-1.44
2022-12-18T23:34:44.291Z,-1.46
2022-12-18T23:37:35.335Z,-1.32
2022-12-18T23:40:02.688Z,-1.23
2022-12-18T23:42:29.250Z,-1.43
2022-12-18T23:44:55.787Z,-1.37
2022-12-18T23:47:26.436Z,-1.24
2022-12-18T23:49:52.975Z,-1.32
2022-12-18T23:52:22.221Z,-1.26
2022-12-18T23:54:50.790Z,-1.09
2022-12-18T23:57:17.546Z,-1.04
2022-12-18T23:59:45.918Z,-1.00
